Earlton, Kansas
Current Conditions -  °F | °C
As of 6:52 AM on Sunday 21 Dec 2014 (Local Time) from KCNU Reporting Station
Overcast Overcast  
Wind Chill: 35°   Ceiling: 2000
Heat Index: 40°   Visibility: 10mi
Dew Point: 38°   Wind: 7mph
Humidity: 93%   Direction: 180°S
Pressure: 30.06"   Gusts: NA
Location:  37.6378°N, 95.4622°W
Report Text: KCNU 211252Z AUTO 18006KT 10SM BKN020 OVC027 04/03 A3006 RMK AO2 SLP185 T00440033
Loading
Personal Weather Stations






























Interactive Weather Map New forecast layout! Learn more

10-Day Weather Forecast

Advertisements
Track Severe Weather on mobile